Time;durP1;ratioP1;P1;durP2;ratioP2;P2;SDS_P1;SDS_P2;PMS_P1;PMS_P2;Temp;Humidity;BMP_temperature;BMP_pressure;BME280_temperature;BME280_humidity;BME280_pressure;Samples;Min_cycle;Max_cycle;Signal;HPM_P1;HPM_P2
2023/05/15 00:00:43;;;;;;;30.53;28.23;;;11.80;74.70;;;;;;5013051;28;20283;-87
2023/05/15 00:03:08;;;;;;;27.87;25.50;;;11.80;74.80;;;;;;5013161;28;20182;-87
2023/05/15 00:05:34;;;;;;;28.03;26.00;;;11.80;74.90;;;;;;5014182;28;20181;-87
2023/05/15 00:07:59;;;;;;;29.60;27.33;;;11.80;74.90;;;;;;5013011;28;20181;-89
2023/05/15 00:10:25;;;;;;;29.70;27.40;;;11.70;74.90;;;;;;5013046;28;20264;-89
2023/05/15 00:12:50;;;;;;;29.83;27.73;;;11.70;74.90;;;;;;5013152;28;20182;-89
2023/05/15 00:15:16;;;;;;;30.00;27.90;;;11.70;75.00;;;;;;5013025;28;20269;-88
2023/05/15 00:17:41;;;;;;;30.50;28.20;;;11.70;75.20;;;;;;5012937;28;20208;-88
2023/05/15 00:20:08;;;;;;;31.20;28.97;;;11.70;75.10;;;;;;5012823;28;20169;-88
2023/05/15 00:22:34;;;;;;;16.50;14.97;;;11.70;75.40;;;;;;5012666;28;20180;-88
2023/05/15 00:24:59;;;;;;;16.27;14.73;;;11.70;75.60;;;;;;5014018;28;20165;-88
2023/05/15 00:27:25;;;;;;;17.30;15.77;;;11.60;75.70;;;;;;5013956;28;20193;-88
2023/05/15 00:29:51;;;;;;;17.47;15.97;;;11.60;75.80;;;;;;5014216;28;20546;-88
2023/05/15 00:32:16;;;;;;;17.67;16.07;;;11.50;75.70;;;;;;5012571;28;20232;-88
2023/05/15 00:34:42;;;;;;;16.43;14.93;;;11.50;75.90;;;;;;5012599;28;20184;-88
2023/05/15 00:37:07;;;;;;;16.43;15.03;;;11.50;76.10;;;;;;5012511;28;20197;-88
2023/05/15 00:39:33;;;;;;;17.83;16.10;;;11.40;76.20;;;;;;5012555;28;20366;-88
2023/05/15 00:41:59;;;;;;;16.60;15.30;;;11.40;76.30;;;;;;5012440;28;20301;-88
2023/05/15 00:44:26;;;;;;;17.13;15.60;;;11.30;76.40;;;;;;5012456;28;20219;-88
2023/05/15 00:46:53;;;;;;;17.93;16.23;;;11.40;76.70;;;;;;5012523;28;20173;-88
2023/05/15 00:49:21;;;;;;;17.47;16.00;;;11.20;77.50;;;;;;5012747;28;20595;-88
2023/05/15 00:51:46;;;;;;;18.80;17.07;;;11.00;78.50;;;;;;5012483;28;20199;-88
2023/05/15 00:54:12;;;;;;;18.87;17.23;;;10.90;79.40;;;;;;5012582;28;20181;-87
2023/05/15 00:56:39;;;;;;;17.73;16.43;;;10.80;79.50;;;;;;5012588;28;20201;-88
2023/05/15 00:59:06;;;;;;;21.63;16.50;;;10.70;79.70;;;;;;5013486;28;20192;-88
2023/05/15 01:01:33;;;;;;;16.53;15.13;;;10.70;80.10;;;;;;5012245;28;20289;-87
2023/05/15 01:04:02;;;;;;;15.77;14.40;;;10.60;80.40;;;;;;5013483;28;20223;-88
2023/05/15 01:06:29;;;;;;;17.90;16.17;;;10.60;80.40;;;;;;5012253;28;20181;-88
2023/05/15 01:08:58;;;;;;;28.00;25.80;;;10.60;80.40;;;;;;5013322;28;20176;-88
2023/05/15 01:11:26;;;;;;;26.70;24.77;;;10.60;80.30;;;;;;5013416;28;20220;-88
2023/05/15 01:13:52;;;;;;;26.40;24.60;;;10.60;80.10;;;;;;5012260;28;20232;-88
2023/05/15 01:16:20;;;;;;;28.63;26.33;;;10.60;80.10;;;;;;5012150;28;20177;-88
2023/05/15 01:18:45;;;;;;;28.27;26.17;;;10.60;80.00;;;;;;5013316;28;20202;-87
2023/05/15 01:21:35;;;;;;;27.50;25.40;;;10.40;80.20;;;;;;5013259;28;20193;-87
2023/05/15 01:24:37;;;;;;;27.70;25.27;;;10.30;80.20;;;;;;5013322;28;20164;-87
2023/05/15 01:27:09;;;;;;;27.30;25.37;;;10.00;80.50;;;;;;5012091;28;20664;-87
2023/05/15 01:29:48;;;;;;;27.97;25.57;;;9.80;81.10;;;;;;5012016;28;20232;-88
2023/05/15 01:32:28;;;;;;;26.77;24.40;;;9.50;81.60;;;;;;5012216;28;20197;-87
2023/05/15 01:35:05;;;;;;;26.50;23.87;;;9.40;82.40;;;;;;5015901;28;20181;-87
2023/05/15 01:37:35;;;;;;;24.70;22.23;;;9.40;82.60;;;;;;5015878;28;20582;-87
2023/05/15 01:40:04;;;;;;;24.00;22.17;;;9.50;82.70;;;;;;5016964;28;20170;-87
2023/05/15 01:42:32;;;;;;;23.90;21.97;;;9.60;82.80;;;;;;5015683;28;20205;-87
2023/05/15 01:45:03;;;;;;;23.87;22.13;;;9.70;82.70;;;;;;5016063;28;20584;-87
2023/05/15 01:47:36;;;;;;;23.10;21.40;;;9.80;82.40;;;;;;5015770;28;20173;-87
2023/05/15 01:50:04;;;;;;;25.23;23.33;;;9.80;82.30;;;;;;5015525;28;20239;-87
2023/05/15 01:52:33;;;;;;;24.33;22.57;;;9.80;82.00;;;;;;5015529;28;20254;-87
2023/05/15 01:55:01;;;;;;;26.57;24.50;;;9.90;81.60;;;;;;5015576;28;20190;-87
2023/05/15 01:57:28;;;;;;;25.73;23.83;;;9.80;81.30;;;;;;5015493;28;20205;-87
2023/05/15 01:59:55;;;;;;;27.33;24.93;;;9.70;81.80;;;;;;5016661;28;20170;-87
2023/05/15 02:02:22;;;;;;;26.63;23.93;;;9.40;82.30;;;;;;5015379;28;20189;-87
2023/05/15 02:04:49;;;;;;;27.07;24.73;;;9.40;83.20;;;;;;5016761;28;20539;-87
2023/05/15 02:07:15;;;;;;;25.43;23.47;;;9.50;83.30;;;;;;5015670;28;20184;-87
2023/05/15 02:09:42;;;;;;;25.10;22.73;;;9.30;83.50;;;;;;5015380;28;20208;-87
2023/05/15 02:12:08;;;;;;;25.50;23.40;;;9.20;83.80;;;;;;5015496;28;20230;-87
2023/05/15 02:14:34;;;;;;;23.67;21.83;;;9.30;84.00;;;;;;5015309;28;20268;-87
2023/05/15 02:17:00;;;;;;;16.07;14.67;;;9.40;84.00;;;;;;5014996;28;20647;-87
2023/05/15 02:19:25;;;;;;;17.27;15.70;;;9.40;83.80;;;;;;5015012;28;20177;-87
2023/05/15 02:21:51;;;;;;;16.70;15.30;;;9.50;83.60;;;;;;5015006;28;20193;-87
2023/05/15 02:24:16;;;;;;;16.40;15.00;;;9.50;83.40;;;;;;5015110;28;20184;-87
2023/05/15 02:26:53;;;;;;;14.93;13.63;;;9.50;83.00;;;;;;5016226;28;20173;-87
2023/05/15 02:29:35;;;;;;;15.60;14.33;;;9.50;82.70;;;;;;5014974;28;20288;-87
2023/05/15 02:32:15;;;;;;;15.60;14.20;;;9.50;82.40;;;;;;5016098;28;20203;-87
2023/05/15 02:34:54;;;;;;;16.07;14.43;;;9.50;82.20;;;;;;5014787;28;20212;-87
2023/05/15 02:37:25;;;;;;;16.73;15.13;;;9.50;81.80;;;;;;5014797;28;20200;-87
2023/05/15 02:39:53;;;;;;;17.20;15.90;;;9.50;81.50;;;;;;5015937;28;20154;-87
2023/05/15 02:42:20;;;;;;;16.90;15.50;;;9.60;81.20;;;;;;5015446;28;20198;-87
2023/05/15 02:44:47;;;;;;;16.90;15.50;;;9.60;80.80;;;;;;5014551;28;20169;-87
2023/05/15 02:47:13;;;;;;;16.30;15.00;;;9.50;80.70;;;;;;5014664;28;20177;-87
2023/05/15 02:49:39;;;;;;;16.63;15.17;;;9.50;80.60;;;;;;5015628;28;20194;-87
2023/05/15 02:52:05;;;;;;;16.10;14.60;;;9.50;80.50;;;;;;5014383;28;20204;-87
2023/05/15 02:54:31;;;;;;;16.50;14.87;;;9.40;80.40;;;;;;5014650;28;20598;-88
2023/05/15 02:56:56;;;;;;;17.23;14.63;;;9.40;80.30;;;;;;5014893;28;20177;-88
2023/05/15 02:59:22;;;;;;;16.20;14.90;;;9.30;80.30;;;;;;5014970;28;20698;-88
2023/05/15 03:01:48;;;;;;;25.73;23.73;;;9.30;80.20;;;;;;5016410;28;20193;-88
2023/05/15 03:04:14;;;;;;;25.03;22.97;;;9.30;80.20;;;;;;5015418;28;20184;-87
2023/05/15 03:06:39;;;;;;;26.37;24.20;;;9.20;80.20;;;;;;5014760;28;20181;-87
2023/05/15 03:09:05;;;;;;;26.60;24.70;;;9.20;80.20;;;;;;5014880;28;20586;-87
2023/05/15 03:11:30;;;;;;;27.33;25.13;;;9.20;80.20;;;;;;5014502;28;20236;-88
2023/05/15 03:13:58;;;;;;;27.53;25.33;;;9.20;80.20;;;;;;5014696;28;20203;-88
2023/05/15 03:16:25;;;;;;;27.77;25.77;;;9.20;80.20;;;;;;5014522;28;20173;-87
2023/05/15 03:18:50;;;;;;;26.67;24.67;;;9.20;80.30;;;;;;5015774;28;20244;-88
2023/05/15 03:21:16;;;;;;;27.10;24.90;;;9.20;80.30;;;;;;5014071;28;20198;-88
2023/05/15 03:23:42;;;;;;;28.63;26.27;;;9.20;80.40;;;;;;5014140;28;20176;-87
2023/05/15 03:26:07;;;;;;;28.93;26.57;;;9.20;80.50;;;;;;5015346;28;20252;-87
2023/05/15 03:28:33;;;;;;;28.43;26.10;;;9.20;80.60;;;;;;5014249;28;20224;-87
2023/05/15 03:30:58;;;;;;;29.33;27.03;;;9.20;80.60;;;;;;5014600;28;20308;-87
2023/05/15 03:33:24;;;;;;;28.33;26.03;;;9.00;81.20;;;;;;5015116;28;20178;-87
2023/05/15 03:35:51;;;;;;;29.17;27.07;;;8.90;82.40;;;;;;5013708;28;20558;-87
2023/05/15 03:38:16;;;;;;;27.50;25.43;;;8.80;82.70;;;;;;5013772;28;20205;-87
2023/05/15 03:40:42;;;;;;;27.67;25.00;;;8.60;82.90;;;;;;5013776;28;20574;-88
2023/05/15 03:43:07;;;;;;;27.20;24.83;;;8.50;83.20;;;;;;5013924;28;20182;-87
2023/05/15 03:45:36;;;;;;;27.67;25.37;;;8.40;82.90;;;;;;5014873;28;20196;-88
2023/05/15 03:48:02;;;;;;;25.60;23.70;;;8.30;83.00;;;;;;5013798;28;20619;-87
2023/05/15 03:50:28;;;;;;;27.57;25.13;;;8.30;83.20;;;;;;5013393;28;20224;-88
2023/05/15 03:52:54;;;;;;;27.93;25.60;;;8.30;83.50;;;;;;5014577;28;20189;-87
2023/05/15 03:55:19;;;;;;;26.30;23.87;;;8.40;83.80;;;;;;5013070;28;20193;-87
2023/05/15 03:57:45;;;;;;;27.27;25.10;;;8.50;83.80;;;;;;5013053;28;20581;-87
2023/05/15 04:00:11;;;;;;;26.50;24.40;;;8.60;84.00;;;;;;5013196;28;20178;-87
2023/05/15 04:02:37;;;;;;;27.60;25.30;;;8.80;84.00;;;;;;5013205;28;20185;-88
2023/05/15 04:05:04;;;;;;;27.83;25.30;;;8.90;83.90;;;;;;5013077;28;20201;-87
2023/05/15 04:07:31;;;;;;;27.33;25.23;;;9.00;83.50;;;;;;5013119;28;20185;-87
2023/05/15 04:10:00;;;;;;;27.17;24.73;;;9.10;83.50;;;;;;5014276;28;20227;-87
2023/05/15 04:12:29;;;;;;;27.17;25.17;;;9.30;83.30;;;;;;5012972;28;20622;-87
2023/05/15 04:14:58;;;;;;;27.90;25.53;;;9.40;83.00;;;;;;5012949;28;20182;-88
2023/05/15 04:17:23;;;;;;;19.13;17.43;;;9.50;82.70;;;;;;5012894;28;20204;-87
2023/05/15 04:19:49;;;;;;;18.73;17.20;;;9.60;82.50;;;;;;5014157;28;20189;-88
2023/05/15 04:22:14;;;;;;;19.50;17.70;;;9.70;82.40;;;;;;5012776;28;20608;-88
2023/05/15 04:24:40;;;;;;;18.20;16.17;;;9.80;82.30;;;;;;5014056;28;20166;-88
2023/05/15 04:27:05;;;;;;;17.70;16.30;;;9.80;82.00;;;;;;5013015;28;20636;-88
2023/05/15 04:29:31;;;;;;;18.83;16.97;;;9.90;81.90;;;;;;5014348;28;20188;-87
2023/05/15 04:31:57;;;;;;;17.70;15.90;;;9.90;81.70;;;;;;5013052;28;20190;-87
2023/05/15 04:34:22;;;;;;;18.30;16.53;;;10.00;81.80;;;;;;5012655;28;20221;-87
2023/05/15 04:36:48;;;;;;;18.93;16.63;;;9.90;81.70;;;;;;5012749;28;20180;-88
2023/05/15 04:39:13;;;;;;;20.00;17.77;;;9.80;82.50;;;;;;5012691;28;20208;-87
2023/05/15 04:41:39;;;;;;;19.10;17.40;;;10.00;82.60;;;;;;5012673;28;20235;-88
2023/05/15 04:44:05;;;;;;;20.47;18.27;;;10.10;82.30;;;;;;5012983;28;20181;-88
2023/05/15 04:46:33;;;;;;;19.30;17.60;;;10.20;82.30;;;;;;5014234;28;20172;-87
2023/05/15 04:48:59;;;;;;;19.17;17.50;;;10.30;82.10;;;;;;5012790;28;20322;-87
2023/05/15 04:51:24;;;;;;;20.37;18.43;;;10.40;81.90;;;;;;5013913;28;20340;-88
2023/05/15 04:53:50;;;;;;;21.07;18.00;;;10.40;81.80;;;;;;5012995;28;20208;-88
2023/05/15 04:56:16;;;;;;;20.20;18.50;;;10.40;81.80;;;;;;5014461;28;20205;-88
2023/05/15 04:58:42;;;;;;;20.10;18.33;;;10.30;81.80;;;;;;5012454;28;20295;-87
2023/05/15 05:01:07;;;;;;;26.93;24.57;;;10.30;81.80;;;;;;5013959;28;20197;-88
2023/05/15 05:03:33;;;;;;;27.33;25.03;;;10.30;82.10;;;;;;5012551;28;20584;-88
2023/05/15 05:05:59;;;;;;;27.80;25.20;;;10.40;82.40;;;;;;5012416;28;20177;-88
2023/05/15 05:08:24;;;;;;;27.67;25.50;;;10.40;82.40;;;;;;5012825;28;20220;-88
2023/05/15 05:10:55;;;;;;;27.70;25.53;;;10.50;82.60;;;;;;5012323;28;20197;-88
2023/05/15 05:13:21;;;;;;;28.47;25.97;;;10.50;82.60;;;;;;5012432;28;20212;-88
2023/05/15 05:15:46;;;;;;;27.27;25.07;;;10.50;82.70;;;;;;5012271;28;20684;-88
2023/05/15 05:18:12;;;;;;;30.27;27.03;;;10.60;82.80;;;;;;5012164;28;20288;-88
2023/05/15 05:20:37;;;;;;;27.97;25.57;;;10.60;82.70;;;;;;5012253;28;20204;-88
2023/05/15 05:23:03;;;;;;;26.17;23.80;;;10.70;82.70;;;;;;5013851;28;20184;-88
2023/05/15 05:25:28;;;;;;;28.00;25.60;;;10.80;82.60;;;;;;5012129;28;20173;-87
2023/05/15 05:27:54;;;;;;;30.10;26.97;;;10.80;82.60;;;;;;5012252;28;20566;-88
2023/05/15 05:30:21;;;;;;;31.40;27.97;;;10.90;83.00;;;;;;5011905;28;20697;-88
2023/05/15 05:32:46;;;;;;;28.17;25.20;;;11.10;83.30;;;;;;5012105;28;20217;-88
2023/05/15 05:35:12;;;;;;;28.40;25.97;;;11.30;83.50;;;;;;5013324;28;20216;-87
2023/05/15 05:37:38;;;;;;;27.70;25.40;;;11.50;83.50;;;;;;5013189;28;20201;-87
2023/05/15 05:40:05;;;;;;;27.20;25.17;;;11.50;83.50;;;;;;5013319;28;20178;-87
2023/05/15 05:42:31;;;;;;;26.87;24.63;;;11.50;83.30;;;;;;5013116;28;20197;-88
2023/05/15 05:44:56;;;;;;;29.00;26.23;;;11.70;83.50;;;;;;5012004;28;20174;-87
2023/05/15 05:47:22;;;;;;;29.17;26.37;;;11.70;83.40;;;;;;5012959;28;20236;-87
2023/05/15 05:49:47;;;;;;;30.43;27.43;;;11.90;84.10;;;;;;5013224;28;20197;-86
2023/05/15 05:52:14;;;;;;;28.60;26.20;;;12.00;84.10;;;;;;5015071;28;20200;-87
2023/05/15 05:54:40;;;;;;;22.30;19.93;;;12.10;83.80;;;;;;5012554;28;20177;-88
2023/05/15 05:57:06;;;;;;;21.10;18.93;;;12.20;83.60;;;;;;5011860;28;20185;-88
2023/05/15 05:59:32;;;;;;;21.13;19.20;;;12.30;83.00;;;;;;5013080;28;20659;-88
2023/05/15 06:01:57;;;;;;;20.60;18.50;;;12.40;82.80;;;;;;5013186;28;20194;-87
2023/05/15 06:04:23;;;;;;;19.50;17.67;;;12.50;82.50;;;;;;5011953;28;20601;-88
2023/05/15 06:06:48;;;;;;;18.33;16.60;;;12.50;82.50;;;;;;5011810;28;20584;-87
2023/05/15 06:09:14;;;;;;;19.50;17.77;;;12.40;81.90;;;;;;5011981;28;20211;-88
2023/05/15 06:11:40;;;;;;;20.63;18.57;;;12.50;82.30;;;;;;5011769;28;20209;-88
2023/05/15 06:14:07;;;;;;;21.87;19.87;;;12.60;82.30;;;;;;5011716;28;20188;-88
2023/05/15 06:16:32;;;;;;;21.27;19.43;;;12.80;82.00;;;;;;5011758;28;20178;-88
2023/05/15 06:18:58;;;;;;;21.87;19.77;;;12.70;81.50;;;;;;5013808;28;20215;-88
2023/05/15 06:21:23;;;;;;;22.17;20.17;;;12.80;82.00;;;;;;5015209;28;20193;-88
2023/05/15 06:23:49;;;;;;;22.37;19.47;;;12.90;82.30;;;;;;5016524;28;20622;-88
2023/05/15 06:26:14;;;;;;;20.77;18.87;;;13.20;82.50;;;;;;5016811;28;20228;-87
2023/05/15 06:28:40;;;;;;;20.77;18.80;;;13.10;81.40;;;;;;5015239;28;20189;-88
2023/05/15 06:31:05;;;;;;;21.60;19.30;;;13.10;81.30;;;;;;5015220;28;20197;-88
2023/05/15 06:33:31;;;;;;;18.73;16.87;;;13.30;81.40;;;;;;5015508;28;20181;-87
2023/05/15 06:35:56;;;;;;;19.17;17.30;;;13.40;81.10;;;;;;5016915;28;20663;-88
2023/05/15 06:38:22;;;;;;;18.37;16.67;;;13.50;80.50;;;;;;5015692;28;20297;-88
2023/05/15 06:40:47;;;;;;;21.33;19.10;;;13.50;80.60;;;;;;5015199;28;20622;-88
2023/05/15 06:43:13;;;;;;;22.23;20.23;;;13.70;81.40;;;;;;5015212;28;20181;-88
2023/05/15 06:45:38;;;;;;;20.20;18.27;;;13.80;80.80;;;;;;5016187;28;20181;-88
2023/05/15 06:48:04;;;;;;;21.50;19.50;;;14.00;80.30;;;;;;5015530;28;20173;-88
2023/05/15 06:50:29;;;;;;;20.83;18.93;;;13.90;79.60;;;;;;5016719;28;20244;-88
2023/05/15 06:52:55;;;;;;;21.17;19.33;;;13.80;79.50;;;;;;5014903;28;20261;-87
2023/05/15 06:55:20;;;;;;;20.33;18.43;;;14.00;80.30;;;;;;5015373;28;20181;-88
2023/05/15 06:57:46;;;;;;;27.13;24.87;;;14.10;79.40;;;;;;5015575;28;20201;-88
2023/05/15 07:00:12;;;;;;;28.03;25.53;;;14.30;79.40;;;;;;5016321;28;20228;-88
2023/05/15 07:02:38;;;;;;;28.73;26.37;;;14.40;78.90;;;;;;5015455;28;20169;-87
2023/05/15 07:05:03;;;;;;;26.90;24.13;;;14.50;78.60;;;;;;5014246;28;20236;-88
2023/05/15 07:07:29;;;;;;;27.98;25.40;;;14.60;78.10;;;;;;5014133;28;20322;-88
2023/05/15 07:09:54;;;;;;;28.00;25.67;;;14.60;78.00;;;;;;5014225;28;20181;-87
2023/05/15 07:12:20;;;;;;;26.88;24.50;;;14.80;78.10;;;;;;5014172;28;20205;-87
2023/05/15 07:14:45;;;;;;;26.60;24.05;;;14.80;77.80;;;;;;5014094;28;20283;-88
2023/05/15 07:17:11;;;;;;;25.20;23.05;;;14.80;77.10;;;;;;5015217;28;20200;-87
2023/05/15 07:19:37;;;;;;;25.43;23.33;;;14.80;76.70;;;;;;5014093;28;20177;-87
2023/05/15 07:22:02;;;;;;;27.27;24.87;;;14.90;78.10;;;;;;5013991;28;20284;-87
2023/05/15 07:24:28;;;;;;;20.20;15.45;;;14.90;75.90;;;;;;5013992;28;20177;-87
2023/05/15 07:26:55;;;;;;;17.73;15.75;;;15.10;77.30;;;;;;5013930;28;20606;-88
2023/05/15 07:29:21;;;;;;;19.35;14.68;;;15.20;76.60;;;;;;5013903;28;20174;-87
2023/05/15 07:31:46;;;;;;;18.67;14.63;;;15.20;75.30;;;;;;5012854;28;20766;-87
2023/05/15 07:34:12;;;;;;;16.15;14.13;;;15.30;75.80;;;;;;5014925;28;20181;-87
2023/05/15 07:36:38;;;;;;;14.82;13.50;;;15.50;75.70;;;;;;5013728;28;20181;-87
2023/05/15 07:39:03;;;;;;;14.85;12.95;;;15.60;74.70;;;;;;5015129;28;20197;-88
2023/05/15 07:41:32;;;;;;;16.85;13.35;;;15.70;74.40;;;;;;5013582;28;20577;-88
2023/05/15 07:43:57;;;;;;;13.55;12.32;;;15.80;74.90;;;;;;5014737;28;20245;-87
2023/05/15 07:46:23;;;;;;;13.98;12.02;;;15.90;74.00;;;;;;5014748;28;20732;-88
2023/05/15 07:48:48;;;;;;;13.82;12.50;;;16.00;73.30;;;;;;5014026;28;20258;-88
2023/05/15 07:51:14;;;;;;;14.73;13.25;;;16.20;72.60;;;;;;5013398;28;20201;-87
2023/05/15 07:53:39;;;;;;;12.52;11.38;;;16.30;72.30;;;;;;5014597;28;20235;-88
2023/05/15 07:56:05;;;;;;;13.48;12.13;;;16.40;72.40;;;;;;5014832;28;20555;-88
2023/05/15 07:58:30;;;;;;;25.35;23.00;;;16.50;71.90;;;;;;5013624;28;20205;-87
2023/05/15 08:00:56;;;;;;;25.00;22.80;;;16.50;70.20;;;;;;5013572;28;20198;-87
2023/05/15 08:03:21;;;;;;;23.30;21.42;;;16.70;69.50;;;;;;5014475;28;20771;-87
2023/05/15 08:05:47;;;;;;;22.63;20.92;;;16.90;70.00;;;;;;5013201;28;20173;-88
2023/05/15 08:08:13;;;;;;;24.80;22.85;;;17.10;68.30;;;;;;5014531;28;20208;-88
2023/05/15 08:10:38;;;;;;;23.52;21.80;;;17.20;66.20;;;;;;5013123;28;20199;-90
2023/05/15 08:13:04;;;;;;;24.98;22.60;;;17.30;67.00;;;;;;5012978;28;20263;-88
2023/05/15 08:15:29;;;;;;;24.77;22.58;;;17.40;65.60;;;;;;5013011;28;20178;-88
2023/05/15 08:17:55;;;;;;;25.02;22.70;;;17.50;65.90;;;;;;5012891;28;20213;-88
2023/05/15 08:20:20;;;;;;;24.02;21.90;;;17.70;67.70;;;;;;5012832;28;20177;-86
2023/05/15 08:22:46;;;;;;;26.48;24.17;;;17.70;66.10;;;;;;5012850;28;20248;-88
2023/05/15 08:25:11;;;;;;;28.02;25.80;;;17.80;63.60;;;;;;5012887;28;20177;-89
2023/05/15 08:27:37;;;;;;;27.90;25.55;;;17.90;63.90;;;;;;5012793;28;20196;-88
2023/05/15 08:30:03;;;;;;;18.17;16.77;;;18.20;64.20;;;;;;5013966;28;20169;-88
2023/05/15 08:32:28;;;;;;;22.38;16.83;;;18.40;63.60;;;;;;5012638;28;20230;-89
2023/05/15 08:34:54;;;;;;;18.70;16.15;;;18.50;64.40;;;;;;5012784;28;20177;-88
2023/05/15 08:37:19;;;;;;;16.85;15.32;;;18.80;62.80;;;;;;5014095;28;20185;-88
2023/05/15 08:39:45;;;;;;;16.65;15.10;;;18.90;60.10;;;;;;5012655;28;20173;-88
2023/05/15 08:42:23;;;;;;;17.27;14.40;;;19.00;61.30;;;;;;5012495;28;20201;-88
2023/05/15 08:44:49;;;;;;;15.55;14.15;;;19.20;61.10;;;;;;5012880;28;20665;-88
2023/05/15 08:47:17;;;;;;;17.25;15.57;;;19.40;60.00;;;;;;5012688;28;20173;-88
2023/05/15 08:49:59;;;;;;;17.80;16.23;;;19.30;58.80;;;;;;5013043;28;20188;-88
2023/05/15 08:52:24;;;;;;;18.55;16.58;;;19.30;61.50;;;;;;5012413;28;20193;-88
2023/05/15 08:54:51;;;;;;;18.60;16.65;;;19.30;61.40;;;;;;5012347;28;20182;-87
2023/05/15 08:57:17;;;;;;;18.75;17.08;;;19.70;62.80;;;;;;5012291;28;20181;-88
2023/05/15 08:59:43;;;;;;;19.77;18.17;;;19.90;61.30;;;;;;5013526;28;20170;-87
2023/05/15 09:02:08;;;;;;;19.77;18.17;;;20.20;60.00;;;;;;5012441;28;20244;-87
2023/05/15 09:04:34;;;;;;;27.23;25.08;;;20.10;59.80;;;;;;5012584;28;20243;-88
2023/05/15 09:07:01;;;;;;;28.42;25.90;;;20.20;57.90;;;;;;5013710;28;20173;-88
2023/05/15 09:09:28;;;;;;;25.23;23.33;;;20.00;58.40;;;;;;5013445;28;20548;-88
2023/05/15 09:11:54;;;;;;;25.15;23.05;;;20.30;56.00;;;;;;5012214;28;20201;-88
2023/05/15 09:14:20;;;;;;;25.23;22.90;;;20.30;56.10;;;;;;5013414;28;20177;-88
2023/05/15 09:16:48;;;;;;;25.58;23.58;;;20.50;54.30;;;;;;5013409;28;20644;-88
2023/05/15 09:19:14;;;;;;;25.67;23.42;;;20.30;55.50;;;;;;5012085;28;20255;-88
2023/05/15 09:21:40;;;;;;;25.52;23.48;;;20.30;56.00;;;;;;5012002;28;20202;-87
2023/05/15 09:24:22;;;;;;;26.13;24.25;;;20.30;54.90;;;;;;5012212;28;20173;-87
2023/05/15 09:27:05;;;;;;;27.40;24.67;;;20.20;55.30;;;;;;5012188;28;20192;-87
2023/05/15 09:29:32;;;;;;;27.13;24.95;;;20.60;53.80;;;;;;5012161;28;20161;-88
2023/05/15 09:32:17;;;;;;;28.00;25.45;;;20.80;54.50;;;;;;5013188;28;20193;-87
2023/05/15 09:34:44;;;;;;;17.00;15.40;;;20.80;53.80;;;;;;5013224;28;20201;-87
2023/05/15 09:37:26;;;;;;;18.08;16.20;;;21.10;54.00;;;;;;5011840;28;20181;-88
2023/05/15 09:39:52;;;;;;;17.23;15.98;;;21.00;54.20;;;;;;5013296;28;20573;-87
2023/05/15 09:42:17;;;;;;;18.80;16.52;;;21.30;52.90;;;;;;5013096;28;20190;-87
2023/05/15 09:44:44;;;;;;;19.45;15.20;;;21.30;50.80;;;;;;5011908;28;20686;-87
2023/05/15 09:47:12;;;;;;;21.25;16.13;;;21.50;51.20;;;;;;5013006;28;20178;-87
2023/05/15 09:49:38;;;;;;;16.73;15.48;;;21.60;50.50;;;;;;5013074;28;20213;-87
2023/05/15 09:52:08;;;;;;;16.98;15.35;;;22.20;49.20;;;;;;5013015;28;20200;-88
2023/05/15 09:54:35;;;;;;;18.05;15.48;;;22.20;49.60;;;;;;5014411;28;20193;-87
2023/05/15 09:57:08;;;;;;;16.35;14.95;;;22.10;50.40;;;;;;5016754;28;20667;-87
2023/05/15 09:59:33;;;;;;;15.93;14.60;;;21.70;50.00;;;;;;5016741;28;20180;-87
2023/05/15 10:01:59;;;;;;;16.05;14.60;;;21.60;51.80;;;;;;5016722;28;20197;-87
2023/05/15 10:04:25;;;;;;;17.05;15.20;;;21.80;51.10;;;;;;5016250;28;20177;-87
2023/05/15 10:06:52;;;;;;;19.88;18.30;;;22.00;51.00;;;;;;5016789;28;20193;-86
2023/05/15 10:09:17;;;;;;;26.08;23.73;;;22.00;49.90;;;;;;5015393;28;20181;-86
2023/05/15 10:11:52;;;;;;;25.77;23.80;;;22.20;50.80;;;;;;5015405;28;20687;-86
2023/05/15 10:14:18;;;;;;;24.70;22.90;;;22.60;48.80;;;;;;5015680;28;20635;-86
2023/05/15 10:16:44;;;;;;;25.40;23.50;;;22.40;49.10;;;;;;5016614;28;20227;-86
2023/05/15 10:19:11;;;;;;;26.30;24.05;;;22.50;49.50;;;;;;5015222;28;20209;-86
2023/05/15 10:21:38;;;;;;;27.38;23.52;;;22.60;50.80;;;;;;5015125;28;20208;-87
2023/05/15 10:24:05;;;;;;;31.15;23.85;;;22.70;49.70;;;;;;5016599;28;20170;-86
2023/05/15 10:26:39;;;;;;;24.98;22.90;;;22.90;48.40;;;;;;5016406;28;20188;-87
2023/05/15 10:29:10;;;;;;;25.15;23.05;;;23.20;48.30;;;;;;5015341;28;20647;-86
2023/05/15 10:31:36;;;;;;;25.88;23.88;;;22.30;48.90;;;;;;5015060;28;20198;-86
2023/05/15 10:34:05;;;;;;;24.30;22.50;;;22.70;51.30;;;;;;5014971;28;20208;-86
2023/05/15 10:36:32;;;;;;;16.63;15.00;;;22.40;50.50;;;;;;5016208;28;20257;-86
2023/05/15 10:39:00;;;;;;;16.35;14.73;;;22.50;48.30;;;;;;5014868;28;20291;-85
2023/05/15 10:41:27;;;;;;;16.48;15.07;;;22.90;50.10;;;;;;5014971;28;20204;-85
2023/05/15 10:43:54;;;;;;;20.80;16.10;;;22.80;48.50;;;;;;5016606;28;20166;-86
2023/05/15 10:46:20;;;;;;;17.13;15.35;;;22.60;49.20;;;;;;5016019;28;20173;-85
2023/05/15 10:48:46;;;;;;;16.88;15.38;;;22.70;50.30;;;;;;5016082;28;20195;-85
2023/05/15 10:51:16;;;;;;;17.10;15.32;;;23.10;48.30;;;;;;5014646;28;20197;-85
2023/05/15 10:53:43;;;;;;;17.35;15.88;;;22.70;48.50;;;;;;5014715;28;20204;-85
2023/05/15 10:56:15;;;;;;;17.45;16.05;;;22.20;50.60;;;;;;5016242;28;20500;-85
2023/05/15 10:58:53;;;;;;;18.20;16.52;;;22.70;49.00;;;;;;5015875;28;20189;-85
2023/05/15 11:01:30;;;;;;;18.20;16.20;;;22.30;51.20;;;;;;5014604;28;20197;-86
2023/05/15 11:04:13;;;;;;;16.58;15.18;;;22.60;50.30;;;;;;5014382;28;20173;-85
2023/05/15 11:06:41;;;;;;;16.50;15.00;;;23.10;48.70;;;;;;5014608;28;20173;-86
2023/05/15 11:09:23;;;;;;;16.27;14.50;;;23.50;45.90;;;;;;5015704;28;20300;-85
2023/05/15 11:11:51;;;;;;;26.55;24.48;;;23.50;45.50;;;;;;5014480;28;20235;-85
2023/05/15 11:14:21;;;;;;;27.23;24.88;;;23.20;48.70;;;;;;5014261;28;20181;-85
2023/05/15 11:16:53;;;;;;;26.60;24.60;;;23.20;49.40;;;;;;5014215;28;20177;-85
2023/05/15 11:19:28;;;;;;;27.25;25.05;;;23.50;49.30;;;;;;5014164;28;20197;-85
2023/05/15 11:21:57;;;;;;;30.33;27.85;;;23.30;50.00;;;;;;5014440;28;20302;-85
2023/05/15 11:24:30;;;;;;;29.88;27.27;;;23.20;53.00;;;;;;5015596;28;20181;-85
2023/05/15 11:27:03;;;;;;;27.48;25.02;;;23.20;50.10;;;;;;5014196;28;20180;-85
2023/05/15 11:29:29;;;;;;;29.38;26.60;;;23.30;50.80;;;;;;5013992;28;20260;-86
2023/05/15 11:31:54;;;;;;;29.10;26.60;;;23.20;50.70;;;;;;5013888;28;20308;-86
2023/05/15 11:34:33;;;;;;;27.38;25.10;;;23.40;51.30;;;;;;5015336;28;20682;-86
2023/05/15 11:36:59;;;;;;;30.05;27.42;;;23.00;52.80;;;;;;5013851;28;20181;-86
2023/05/15 11:39:26;;;;;;;21.95;19.88;;;22.70;54.80;;;;;;5013701;28;20347;-86
2023/05/15 11:41:52;;;;;;;21.08;19.35;;;22.80;54.80;;;;;;5013738;28;20224;-86
2023/05/15 11:44:20;;;;;;;22.13;20.13;;;23.00;56.90;;;;;;5014892;28;20177;-86
2023/05/15 11:46:46;;;;;;;21.20;19.30;;;22.00;57.50;;;;;;5013711;28;20177;-86
2023/05/15 11:49:11;;;;;;;21.60;19.38;;;22.30;59.50;;;;;;5013540;28;20200;-86
2023/05/15 11:51:41;;;;;;;21.02;19.05;;;22.20;58.00;;;;;;5014843;28;20201;-85
2023/05/15 11:54:13;;;;;;;22.98;20.67;;;22.60;55.40;;;;;;5014888;28;20522;-85
2023/05/15 11:56:43;;;;;;;21.48;18.88;;;22.40;57.90;;;;;;5015530;28;20525;-85
2023/05/15 11:59:12;;;;;;;21.20;19.17;;;22.70;57.60;;;;;;5014746;28;20728;-85
2023/05/15 12:01:40;;;;;;;21.20;19.05;;;23.00;55.90;;;;;;5013427;28;20731;-86
2023/05/15 12:04:16;;;;;;;21.05;18.55;;;23.00;57.10;;;;;;5014912;28;20199;-85
2023/05/15 12:06:43;;;;;;;23.55;20.98;;;22.70;56.10;;;;;;5013522;28;20169;-85
2023/05/15 12:09:15;;;;;;;21.00;19.00;;;21.50;60.50;;;;;;5014777;28;20686;-85
2023/05/15 12:11:46;;;;;;;26.58;19.58;;;22.00;60.40;;;;;;5014442;28;20568;-85
2023/05/15 12:14:11;;;;;;;21.17;18.90;;;22.00;57.00;;;;;;5014558;28;20158;-85
2023/05/15 12:16:37;;;;;;;20.90;19.02;;;22.20;58.50;;;;;;5014181;28;20173;-86
2023/05/15 12:19:03;;;;;;;30.55;27.90;;;22.40;55.80;;;;;;5012927;28;20205;-85
2023/05/15 12:21:29;;;;;;;29.40;26.90;;;22.60;56.60;;;;;;5013205;28;20698;-85
2023/05/15 12:23:55;;;;;;;28.95;26.55;;;22.70;56.50;;;;;;5013258;28;20602;-85
2023/05/15 12:26:22;;;;;;;30.95;28.15;;;21.90;59.20;;;;;;5014622;28;20169;-85
2023/05/15 12:28:49;;;;;;;30.85;28.20;;;21.90;58.70;;;;;;5014629;28;20257;-85